Time;durP1;ratioP1;P1;durP2;ratioP2;P2;SDS_P1;SDS_P2;PMS_P1;PMS_P2;Temp;Humidity;BMP_temperature;BMP_pressure;BME280_temperature;BME280_humidity;BME280_pressure;Samples;Min_cycle;Max_cycle;Signal;HPM_P1;HPM_P2
2022/03/18 00:02:06;;;;;;;8.40;4.50;;;4.80;99.90;;;;;;5052586;28;20040;-68
2022/03/18 00:04:31;;;;;;;11.90;4.30;;;4.80;99.90;;;;;;5052353;28;20052;-68
2022/03/18 00:06:57;;;;;;;9.80;5.03;;;4.80;99.90;;;;;;5052336;28;20041;-68
2022/03/18 00:09:22;;;;;;;10.80;3.88;;;4.80;99.90;;;;;;5051236;28;20625;-68
2022/03/18 00:11:48;;;;;;;17.02;5.40;;;4.80;99.90;;;;;;5034768;28;20098;-69
2022/03/18 00:14:14;;;;;;;11.75;5.13;;;4.80;99.90;;;;;;5051154;28;20048;-68
2022/03/18 00:16:40;;;;;;;14.82;5.57;;;4.80;99.90;;;;;;5050976;28;20128;-68
2022/03/18 00:19:06;;;;;;;9.90;4.13;;;4.80;99.90;;;;;;5050448;28;20037;-69
2022/03/18 00:21:34;;;;;;;11.90;5.10;;;4.80;99.90;;;;;;5050776;28;20410;-69
2022/03/18 00:24:00;;;;;;;10.10;4.95;;;4.80;99.90;;;;;;5050815;28;20041;-69
2022/03/18 00:26:25;;;;;;;8.98;4.68;;;4.80;99.90;;;;;;5050770;28;20568;-68
2022/03/18 00:28:51;;;;;;;11.88;4.55;;;4.80;99.90;;;;;;5050425;28;20041;-68
2022/03/18 00:31:16;;;;;;;14.18;4.93;;;4.80;99.90;;;;;;5050940;28;20043;-68
2022/03/18 00:33:42;;;;;;;10.73;4.70;;;4.80;99.90;;;;;;5050979;28;20033;-69
2022/03/18 00:36:07;;;;;;;11.35;5.10;;;4.70;99.90;;;;;;5050325;28;20036;-69
2022/03/18 00:38:34;;;;;;;12.35;5.15;;;4.70;99.90;;;;;;5050226;28;20041;-71
2022/03/18 00:41:00;;;;;;;17.65;4.60;;;4.60;99.90;;;;;;5051913;28;20080;-71
2022/03/18 00:43:26;;;;;;;19.00;6.30;;;4.70;99.90;;;;;;5050578;28;20453;-71
2022/03/18 00:45:51;;;;;;;17.40;5.80;;;4.70;99.90;;;;;;5050272;28;20045;-71
2022/03/18 00:53:45;;;;;;;12.35;5.40;;;4.70;99.90;;;;;;5050424;28;20521;-71
2022/03/18 00:56:11;;;;;;;11.23;5.47;;;4.70;99.90;;;;;;5050310;28;20037;-71
2022/03/18 00:58:36;;;;;;;14.13;5.95;;;4.70;99.90;;;;;;5050489;28;20043;-70
2022/03/18 01:01:02;;;;;;;14.98;5.90;;;4.70;99.90;;;;;;5050613;28;20068;-70
2022/03/18 01:03:28;;;;;;;18.50;7.32;;;4.70;99.90;;;;;;5050925;28;20545;-70
2022/03/18 01:05:54;;;;;;;13.88;6.18;;;4.70;99.90;;;;;;5050088;28;20056;-70
2022/03/18 01:08:19;;;;;;;20.85;6.97;;;4.70;99.90;;;;;;5049914;28;20045;-70
2022/03/18 01:10:45;;;;;;;13.45;5.45;;;4.70;99.90;;;;;;5050276;28;20090;-70
2022/03/18 01:13:11;;;;;;;14.55;7.80;;;4.70;99.90;;;;;;5060546;28;20037;-70
2022/03/18 01:15:36;;;;;;;12.10;5.93;;;4.70;99.90;;;;;;5063966;28;20630;-70
2022/03/18 01:18:02;;;;;;;13.35;7.15;;;4.70;99.90;;;;;;5069141;28;20040;-70
2022/03/18 01:20:28;;;;;;;19.73;7.88;;;4.70;99.90;;;;;;5071545;28;20506;-70
2022/03/18 01:22:54;;;;;;;13.60;6.13;;;4.70;99.90;;;;;;5070194;28;20406;-70
2022/03/18 01:25:19;;;;;;;12.80;7.72;;;4.70;99.90;;;;;;5069882;28;20052;-70
2022/03/18 01:27:46;;;;;;;19.20;6.10;;;4.80;99.90;;;;;;5071388;28;20037;-70
2022/03/18 01:30:13;;;;;;;14.13;6.95;;;4.80;99.90;;;;;;5070028;28;20050;-70
2022/03/18 01:32:39;;;;;;;18.38;6.55;;;4.80;99.90;;;;;;5070893;28;20037;-70
2022/03/18 01:35:05;;;;;;;19.42;6.80;;;4.80;99.90;;;;;;5070386;28;20095;-70
2022/03/18 01:37:31;;;;;;;14.65;6.40;;;4.90;99.90;;;;;;5069537;28;20178;-70
2022/03/18 01:39:57;;;;;;;15.77;7.18;;;4.80;99.90;;;;;;5070067;28;20159;-70
2022/03/18 01:42:23;;;;;;;12.95;7.10;;;4.80;99.90;;;;;;5072723;28;20094;-70
2022/03/18 01:44:49;;;;;;;22.70;7.63;;;4.80;99.90;;;;;;5074127;28;20049;-70
2022/03/18 01:47:14;;;;;;;16.95;6.65;;;4.90;99.90;;;;;;5073380;28;20045;-69
2022/03/18 01:49:40;;;;;;;14.20;6.03;;;4.80;99.90;;;;;;5073747;28;20029;-69
2022/03/18 01:52:08;;;;;;;15.43;7.07;;;4.80;99.90;;;;;;5074866;28;20040;-69
2022/03/18 01:54:49;;;;;;;21.83;7.22;;;4.90;99.90;;;;;;5074903;28;20036;-69
2022/03/18 01:57:18;;;;;;;14.73;6.18;;;4.90;99.90;;;;;;5073419;28;20075;-69
2022/03/18 01:59:43;;;;;;;20.75;8.05;;;4.80;99.90;;;;;;5073593;28;20116;-69
2022/03/18 02:02:09;;;;;;;17.58;7.63;;;4.80;99.90;;;;;;5073448;28;20186;-69
2022/03/18 02:04:36;;;;;;;20.80;8.15;;;4.80;99.90;;;;;;5073426;28;20039;-69
2022/03/18 02:07:03;;;;;;;17.25;7.93;;;4.80;99.90;;;;;;5072913;28;20051;-69
2022/03/18 02:09:31;;;;;;;16.95;8.77;;;4.90;99.90;;;;;;5074329;28;20410;-69
2022/03/18 02:11:57;;;;;;;12.30;6.72;;;4.80;99.90;;;;;;5073262;28;20036;-69
2022/03/18 02:14:37;;;;;;;14.38;7.15;;;4.80;99.90;;;;;;5074546;28;20032;-69
2022/03/18 02:17:08;;;;;;;15.60;6.85;;;4.70;99.90;;;;;;5072967;28;20043;-69
2022/03/18 02:19:35;;;;;;;17.73;7.97;;;4.70;99.90;;;;;;5073113;28;20051;-69
2022/03/18 02:22:05;;;;;;;14.20;8.50;;;4.60;99.90;;;;;;5073171;28;20040;-69
2022/03/18 02:24:31;;;;;;;14.32;8.05;;;4.70;99.90;;;;;;5073567;28;20043;-69
2022/03/18 02:26:57;;;;;;;18.50;9.30;;;4.70;99.90;;;;;;5074012;28;20116;-69
2022/03/18 02:29:24;;;;;;;15.93;7.63;;;4.60;99.90;;;;;;5072779;28;20425;-69
2022/03/18 02:31:49;;;;;;;19.35;8.10;;;4.60;99.90;;;;;;5055762;28;20059;-69
2022/03/18 02:34:16;;;;;;;18.77;7.85;;;4.60;99.90;;;;;;5072875;28;20518;-69
2022/03/18 02:36:42;;;;;;;15.52;7.63;;;4.70;99.90;;;;;;5072550;28;20135;-69
2022/03/18 02:39:08;;;;;;;18.60;8.32;;;4.70;99.90;;;;;;5072673;28;20478;-69
2022/03/18 02:41:33;;;;;;;16.33;7.55;;;4.60;99.90;;;;;;5072577;28;20055;-69
2022/03/18 02:44:00;;;;;;;13.07;7.25;;;4.60;99.90;;;;;;5055935;28;20098;-69
2022/03/18 02:46:26;;;;;;;13.45;7.45;;;4.50;99.90;;;;;;5072268;28;20489;-69
2022/03/18 02:48:51;;;;;;;14.00;8.35;;;4.50;99.90;;;;;;5073941;28;20075;-69
2022/03/18 02:51:17;;;;;;;15.55;7.60;;;4.50;99.90;;;;;;5072444;28;20482;-69
2022/03/18 02:53:43;;;;;;;17.88;8.07;;;4.40;99.90;;;;;;5072638;28;20123;-69
2022/03/18 02:56:09;;;;;;;16.70;7.68;;;4.50;99.90;;;;;;5072383;28;20564;-69
2022/03/18 02:58:36;;;;;;;11.85;6.90;;;4.50;99.90;;;;;;5073614;28;20041;-69
2022/03/18 03:01:03;;;;;;;16.55;7.20;;;4.50;99.90;;;;;;5072403;28;20040;-69
2022/03/18 03:03:29;;;;;;;15.48;7.68;;;4.50;99.90;;;;;;5072312;28;20075;-69
2022/03/18 03:08:39;;;;;;;15.68;8.00;;;4.50;99.90;;;;;;5071960;28;20059;-69
2022/03/18 03:11:05;;;;;;;20.60;8.77;;;4.50;99.90;;;;;;5072333;28;20040;-69
2022/03/18 03:13:32;;;;;;;14.07;7.43;;;4.40;99.90;;;;;;5072100;28;20497;-69
2022/03/18 03:15:58;;;;;;;12.70;7.38;;;4.40;99.90;;;;;;5071846;28;20048;-69
2022/03/18 03:18:24;;;;;;;12.80;7.70;;;4.40;99.90;;;;;;5055174;28;20048;-69
2022/03/18 03:20:50;;;;;;;11.35;7.47;;;4.30;99.90;;;;;;5071885;28;20480;-69
2022/03/18 03:23:16;;;;;;;12.32;7.93;;;4.30;99.90;;;;;;5071953;28;20040;-69
2022/03/18 03:25:42;;;;;;;19.80;8.82;;;4.30;99.90;;;;;;5071481;28;20044;-69
2022/03/18 03:28:08;;;;;;;12.05;7.65;;;4.20;99.90;;;;;;5073203;28;20037;-70
2022/03/18 03:30:34;;;;;;;15.20;7.38;;;4.20;99.90;;;;;;5073154;28;20470;-69
2022/03/18 03:33:00;;;;;;;11.68;7.78;;;4.30;99.90;;;;;;5071156;28;20037;-69
2022/03/18 03:35:26;;;;;;;23.45;8.60;;;4.30;99.90;;;;;;5071393;28;20138;-69
2022/03/18 03:37:52;;;;;;;15.43;7.40;;;4.30;99.90;;;;;;5071684;28;20028;-69
2022/03/18 03:40:18;;;;;;;17.27;7.63;;;4.30;99.90;;;;;;5072929;28;20043;-69
2022/03/18 03:42:45;;;;;;;12.70;7.68;;;4.30;99.90;;;;;;5071571;28;20048;-69
2022/03/18 03:45:12;;;;;;;13.45;7.72;;;4.40;99.90;;;;;;5071432;28;20482;-69
2022/03/18 03:47:39;;;;;;;19.27;8.63;;;4.30;99.90;;;;;;5071143;28;20040;-69
2022/03/18 03:50:06;;;;;;;14.20;7.05;;;4.30;99.90;;;;;;5071300;28;20040;-69
2022/03/18 03:52:32;;;;;;;13.07;7.95;;;4.30;99.90;;;;;;5071471;28;20115;-69
2022/03/18 03:54:57;;;;;;;16.40;7.70;;;4.30;99.90;;;;;;5071257;28;20179;-69
2022/03/18 03:57:23;;;;;;;16.58;7.93;;;4.30;99.90;;;;;;5070779;28;20486;-69
2022/03/18 03:59:49;;;;;;;15.18;7.53;;;4.20;99.90;;;;;;5072578;28;20055;-69
2022/03/18 04:02:14;;;;;;;11.95;7.68;;;4.30;99.90;;;;;;5071110;28;20064;-69
2022/03/18 04:04:40;;;;;;;14.93;8.43;;;4.30;99.90;;;;;;5071790;28;20041;-69
2022/03/18 04:07:05;;;;;;;13.30;8.38;;;4.20;99.90;;;;;;5071790;28;20033;-69
2022/03/18 04:09:31;;;;;;;15.90;8.02;;;4.20;99.90;;;;;;5070822;28;20062;-69
2022/03/18 04:11:56;;;;;;;15.15;8.43;;;4.10;99.90;;;;;;5071349;28;20666;-69
2022/03/18 04:14:22;;;;;;;17.23;7.75;;;4.10;99.90;;;;;;5070811;28;20037;-69
2022/03/18 04:16:48;;;;;;;16.50;9.90;;;4.20;99.90;;;;;;5071937;28;20036;-69
2022/03/18 04:19:14;;;;;;;18.00;8.80;;;4.10;99.90;;;;;;5070758;28;20040;-69
2022/03/18 04:21:39;;;;;;;14.27;8.10;;;4.10;99.90;;;;;;5071048;28;20047;-69
2022/03/18 04:24:05;;;;;;;15.63;8.80;;;4.10;99.90;;;;;;5072229;28;20068;-69
2022/03/18 04:26:31;;;;;;;15.93;8.98;;;4.10;99.90;;;;;;5070507;28;20037;-69
2022/03/18 04:28:56;;;;;;;12.90;8.45;;;4.10;99.90;;;;;;5070489;28;20093;-70
2022/03/18 04:31:23;;;;;;;26.05;10.23;;;4.20;99.90;;;;;;5070570;28;20033;-69
2022/03/18 04:33:48;;;;;;;17.58;9.43;;;4.20;99.90;;;;;;5070130;28;20044;-69
2022/03/18 04:36:14;;;;;;;20.35;8.68;;;4.20;99.90;;;;;;5071414;28;20032;-69
2022/03/18 04:38:39;;;;;;;17.17;9.25;;;4.20;99.90;;;;;;5070618;28;20576;-69
2022/03/18 04:41:05;;;;;;;16.60;9.55;;;4.20;99.90;;;;;;5070686;28;20410;-69
2022/03/18 04:43:31;;;;;;;22.38;10.02;;;4.20;99.90;;;;;;5070799;28;20098;-69
2022/03/18 04:45:57;;;;;;;19.80;9.52;;;4.20;99.90;;;;;;5070408;28;20501;-69
2022/03/18 04:48:22;;;;;;;16.83;9.52;;;4.20;99.90;;;;;;5071484;28;20064;-69
2022/03/18 04:50:48;;;;;;;19.75;10.00;;;4.20;99.90;;;;;;5070501;28;20062;-69
2022/03/18 04:53:13;;;;;;;16.58;9.48;;;4.20;99.90;;;;;;5070347;28;20044;-69
2022/03/18 04:55:39;;;;;;;20.90;9.77;;;4.20;99.90;;;;;;5070342;28;20044;-69
2022/03/18 04:58:04;;;;;;;18.40;11.65;;;4.30;99.90;;;;;;5070193;28;20040;-69
2022/03/18 05:00:30;;;;;;;23.50;12.80;;;4.30;99.90;;;;;;5070615;28;20119;-69
2022/03/18 05:02:56;;;;;;;21.23;11.02;;;4.40;99.90;;;;;;5070438;28;20124;-69
2022/03/18 05:05:22;;;;;;;16.77;9.82;;;4.40;99.90;;;;;;5071550;28;20068;-69
2022/03/18 05:07:49;;;;;;;13.15;10.15;;;4.50;99.90;;;;;;5070237;28;20094;-69
2022/03/18 05:10:15;;;;;;;18.48;10.70;;;4.60;99.90;;;;;;5070222;28;20056;-69
2022/03/18 05:12:40;;;;;;;16.33;9.10;;;4.60;99.90;;;;;;5070392;28;20036;-70
2022/03/18 05:15:08;;;;;;;14.00;8.05;;;4.70;99.90;;;;;;5070443;28;20455;-69
2022/03/18 05:17:34;;;;;;;15.65;9.70;;;4.70;99.90;;;;;;5073107;28;20533;-69
2022/03/18 05:20:00;;;;;;;22.98;9.70;;;4.70;99.90;;;;;;5074281;28;20040;-69
2022/03/18 05:22:25;;;;;;;17.52;9.75;;;4.70;99.90;;;;;;5074262;28;20513;-69
2022/03/18 05:24:52;;;;;;;15.20;8.80;;;4.70;99.90;;;;;;5075454;28;20036;-69
2022/03/18 05:27:18;;;;;;;15.82;8.18;;;4.60;99.90;;;;;;5075037;28;20048;-69
2022/03/18 05:29:44;;;;;;;17.08;8.68;;;4.50;99.90;;;;;;5073938;28;20649;-69
2022/03/18 05:32:11;;;;;;;12.55;8.40;;;4.50;99.90;;;;;;5073517;28;20033;-69
2022/03/18 05:34:37;;;;;;;15.85;10.27;;;4.50;99.90;;;;;;5074011;28;20068;-69
2022/03/18 05:37:05;;;;;;;12.88;8.73;;;4.50;99.90;;;;;;5056861;28;20409;-69
2022/03/18 05:39:32;;;;;;;13.43;9.05;;;4.50;99.90;;;;;;5075207;28;20498;-69
2022/03/18 05:41:57;;;;;;;19.25;9.95;;;4.50;99.90;;;;;;5073650;28;20040;-69
2022/03/18 05:44:23;;;;;;;18.77;9.63;;;4.50;99.90;;;;;;5073863;28;20559;-69
2022/03/18 05:46:49;;;;;;;18.23;10.95;;;4.50;99.90;;;;;;5073209;28;20131;-69
2022/03/18 05:49:14;;;;;;;20.08;10.98;;;4.50;99.90;;;;;;5073511;28;20397;-69
2022/03/18 05:51:40;;;;;;;18.88;10.00;;;4.50;99.90;;;;;;5073500;28;20037;-69
2022/03/18 05:54:06;;;;;;;14.48;9.73;;;4.50;99.90;;;;;;5073492;28;20086;-69
2022/03/18 05:59:17;;;;;;;14.77;9.25;;;4.50;99.90;;;;;;5074842;28;20055;-69
2022/03/18 06:01:43;;;;;;;17.70;9.75;;;4.50;99.90;;;;;;5073375;28;20044;-69
2022/03/18 06:04:10;;;;;;;13.75;9.00;;;4.50;99.90;;;;;;5073308;28;20048;-69
2022/03/18 06:06:39;;;;;;;20.95;9.60;;;4.50;99.90;;;;;;5073204;28;20037;-70
2022/03/18 06:11:51;;;;;;;16.33;10.00;;;4.50;99.90;;;;;;5073349;28;20539;-71
2022/03/18 06:14:22;;;;;;;16.92;10.50;;;4.50;99.90;;;;;;5073235;28;20039;-70
2022/03/18 06:16:51;;;;;;;12.20;9.32;;;4.50;99.90;;;;;;5072956;28;20075;-70
2022/03/18 06:19:19;;;;;;;17.30;10.95;;;4.50;99.90;;;;;;5072991;28;20123;-70
2022/03/18 06:21:45;;;;;;;17.17;10.90;;;4.60;99.90;;;;;;5073047;28;20089;-70
2022/03/18 06:24:11;;;;;;;18.05;10.57;;;4.60;99.90;;;;;;5074410;28;20115;-70
2022/03/18 06:26:38;;;;;;;16.70;11.13;;;4.60;99.90;;;;;;5072183;28;20490;-70
2022/03/18 06:29:05;;;;;;;18.15;10.32;;;4.60;99.90;;;;;;5072758;28;20044;-71
2022/03/18 06:31:31;;;;;;;18.27;11.13;;;4.60;99.90;;;;;;5072835;28;20056;-70
2022/03/18 06:33:56;;;;;;;24.02;12.13;;;4.70;99.90;;;;;;5072824;28;20523;-70
2022/03/18 06:36:22;;;;;;;18.65;11.48;;;4.70;99.90;;;;;;5072302;28;20452;-70
2022/03/18 06:38:47;;;;;;;14.80;10.10;;;4.80;99.90;;;;;;5072825;28;20181;-70
2022/03/18 06:41:15;;;;;;;16.55;10.10;;;4.90;99.90;;;;;;5072769;28;20139;-70
2022/03/18 06:43:40;;;;;;;18.17;9.80;;;5.00;99.90;;;;;;5055998;28;20039;-70
2022/03/18 06:46:06;;;;;;;18.42;10.52;;;5.10;99.90;;;;;;5072539;28;20036;-70
2022/03/18 06:48:31;;;;;;;15.80;11.65;;;5.30;99.90;;;;;;5072230;28;20036;-70
2022/03/18 06:50:59;;;;;;;20.15;13.30;;;5.40;99.90;;;;;;5072709;28;20040;-71
2022/03/18 06:53:24;;;;;;;20.65;12.75;;;5.60;99.90;;;;;;5073699;28;20490;-70
2022/03/18 06:55:50;;;;;;;18.13;13.40;;;5.80;99.90;;;;;;5073357;28;20041;-70
2022/03/18 06:58:16;;;;;;;20.02;13.85;;;6.00;99.90;;;;;;5073453;28;20045;-70
2022/03/18 07:00:41;;;;;;;23.40;14.15;;;6.20;99.90;;;;;;5072596;28;20032;-70
2022/03/18 07:03:07;;;;;;;20.17;14.43;;;6.50;99.90;;;;;;5073459;28;20039;-70
2022/03/18 07:05:32;;;;;;;18.10;14.25;;;6.70;99.90;;;;;;5072061;28;20044;-70
2022/03/18 07:07:58;;;;;;;18.05;13.35;;;6.90;99.90;;;;;;5071907;28;20036;-70
2022/03/18 07:10:24;;;;;;;17.55;13.38;;;7.10;99.90;;;;;;5073244;28;20044;-71
2022/03/18 07:12:50;;;;;;;17.00;13.05;;;7.30;99.90;;;;;;5072240;28;20123;-70
2022/03/18 07:15:15;;;;;;;20.48;12.27;;;7.50;99.90;;;;;;5073171;28;20516;-70
2022/03/18 07:17:59;;;;;;;19.58;13.65;;;7.60;99.90;;;;;;5073018;28;20611;-70
2022/03/18 07:20:33;;;;;;;17.55;13.00;;;7.90;99.90;;;;;;5071623;28;20044;-70
2022/03/18 07:22:59;;;;;;;16.83;12.60;;;8.10;99.90;;;;;;5065438;28;20498;-70
2022/03/18 07:25:25;;;;;;;19.38;12.95;;;8.20;99.90;;;;;;5052700;28;20581;-70
2022/03/18 07:27:50;;;;;;;19.98;12.48;;;8.30;99.90;;;;;;5051755;28;20175;-70
2022/03/18 07:30:16;;;;;;;19.50;13.00;;;8.50;99.90;;;;;;5053031;28;20132;-70
2022/03/18 07:32:41;;;;;;;14.82;12.52;;;8.70;99.90;;;;;;5051694;28;20041;-70
2022/03/18 07:35:07;;;;;;;25.63;13.10;;;8.90;99.90;;;;;;5051854;28;20037;-70
2022/03/18 07:37:33;;;;;;;17.30;12.68;;;9.10;99.90;;;;;;5051177;28;20072;-70
2022/03/18 07:39:59;;;;;;;22.30;13.38;;;9.30;99.90;;;;;;5034202;28;20487;-70
2022/03/18 07:42:24;;;;;;;20.38;13.85;;;9.40;99.90;;;;;;5052941;28;20396;-70
2022/03/18 07:44:50;;;;;;;20.55;13.63;;;9.70;99.90;;;;;;5051505;28;20037;-70
2022/03/18 07:47:15;;;;;;;23.17;12.45;;;9.70;99.90;;;;;;5051212;28;20048;-70
2022/03/18 07:49:41;;;;;;;20.50;13.52;;;9.80;99.90;;;;;;5051366;28;20122;-71
2022/03/18 07:52:07;;;;;;;16.05;11.98;;;10.00;99.90;;;;;;5053686;28;20095;-70
2022/03/18 07:54:33;;;;;;;23.10;12.63;;;10.10;99.90;;;;;;5061357;28;20041;-69
2022/03/18 07:56:58;;;;;;;16.90;12.13;;;10.30;99.90;;;;;;5042385;28;20051;-69
2022/03/18 07:59:24;;;;;;;16.48;12.10;;;10.50;99.90;;;;;;5067925;28;20047;-70
2022/03/18 08:01:49;;;;;;;20.48;11.25;;;10.40;99.90;;;;;;5070851;28;20115;-70
2022/03/18 08:04:15;;;;;;;19.40;11.07;;;10.50;99.90;;;;;;5070498;28;20032;-69
2022/03/18 08:06:41;;;;;;;25.23;12.13;;;10.50;99.90;;;;;;5070580;28;20040;-71
2022/03/18 08:09:06;;;;;;;20.15;12.32;;;10.50;99.90;;;;;;5070845;28;20040;-70
2022/03/18 08:11:32;;;;;;;19.50;11.82;;;10.70;99.90;;;;;;5071309;28;20055;-70
2022/03/18 08:13:58;;;;;;;20.95;11.95;;;10.80;99.90;;;;;;5070831;28;20093;-70
2022/03/18 08:16:26;;;;;;;19.65;12.32;;;10.70;99.90;;;;;;5070748;28;20036;-71
2022/03/18 08:18:51;;;;;;;16.90;10.60;;;10.90;99.90;;;;;;5072061;28;20123;-70
2022/03/18 08:21:17;;;;;;;18.35;11.93;;;11.00;99.90;;;;;;5072192;28;20044;-69
2022/03/18 08:23:43;;;;;;;17.83;10.98;;;10.90;99.90;;;;;;5070250;28;20036;-70
2022/03/18 08:26:08;;;;;;;19.45;11.32;;;11.10;99.90;;;;;;5069760;28;20410;-69
2022/03/18 08:28:34;;;;;;;22.10;12.18;;;11.10;99.90;;;;;;5070046;28;20498;-69
2022/03/18 08:30:59;;;;;;;18.95;10.75;;;11.30;99.90;;;;;;5070554;28;20040;-69
2022/03/18 08:33:26;;;;;;;24.25;12.18;;;11.30;99.90;;;;;;5070294;28;20037;-69
2022/03/18 08:35:51;;;;;;;17.33;11.85;;;11.00;99.90;;;;;;5071439;28;20043;-70
2022/03/18 08:38:17;;;;;;;23.92;11.90;;;11.30;99.90;;;;;;5070430;28;20048;-69
2022/03/18 08:40:43;;;;;;;24.15;11.25;;;11.50;99.90;;;;;;5071933;28;20059;-70
2022/03/18 08:43:09;;;;;;;21.92;11.10;;;11.70;99.90;;;;;;5071723;28;20379;-69
2022/03/18 08:45:35;;;;;;;26.10;11.27;;;11.70;99.90;;;;;;5070122;28;20040;-70
2022/03/18 08:48:00;;;;;;;18.80;10.43;;;11.80;99.90;;;;;;5070347;28;20043;-68
2022/03/18 08:50:27;;;;;;;17.08;10.77;;;12.00;99.90;;;;;;5069923;28;20036;-68
2022/03/18 08:52:54;;;;;;;20.15;11.07;;;12.10;99.90;;;;;;5071824;28;20075;-68
2022/03/18 08:55:20;;;;;;;23.35;10.60;;;12.10;99.90;;;;;;5070930;28;20807;-68
2022/03/18 08:57:46;;;;;;;23.25;11.50;;;12.30;99.90;;;;;;5069794;28;20064;-68
2022/03/18 09:00:15;;;;;;;24.30;9.77;;;12.30;99.90;;;;;;5071587;28;20592;-68
2022/03/18 09:02:43;;;;;;;16.92;9.63;;;12.20;99.90;;;;;;5071162;28;20444;-68
2022/03/18 09:05:09;;;;;;;13.68;9.13;;;12.40;99.90;;;;;;5071597;28;20044;-68
2022/03/18 09:07:36;;;;;;;32.40;10.88;;;12.30;99.90;;;;;;5053403;28;20062;-68
2022/03/18 09:10:03;;;;;;;22.15;10.18;;;12.30;99.90;;;;;;5070113;28;20040;-68
2022/03/18 09:12:28;;;;;;;24.35;9.95;;;12.20;99.90;;;;;;5070222;28;20474;-68
2022/03/18 09:14:54;;;;;;;17.63;9.40;;;12.20;99.90;;;;;;5069987;28;20128;-68
2022/03/18 09:17:21;;;;;;;21.52;9.35;;;12.30;99.90;;;;;;5069781;28;20501;-68
2022/03/18 09:19:46;;;;;;;20.92;9.93;;;12.10;99.90;;;;;;5071510;28;20051;-69
2022/03/18 09:22:16;;;;;;;23.25;10.27;;;12.20;99.90;;;;;;5071440;28;20037;-68
2022/03/18 09:24:43;;;;;;;17.55;9.60;;;12.20;99.90;;;;;;5070195;28;20051;-68
2022/03/18 09:27:09;;;;;;;18.48;9.63;;;12.30;99.90;;;;;;5069665;28;20076;-68
2022/03/18 09:29:36;;;;;;;24.63;10.85;;;12.30;99.90;;;;;;5053022;28;20083;-68
2022/03/18 09:32:05;;;;;;;25.65;9.35;;;12.20;99.90;;;;;;5069176;28;20040;-68
2022/03/18 09:34:31;;;;;;;21.40;10.80;;;12.30;99.90;;;;;;5069673;28;20446;-69
2022/03/18 09:36:58;;;;;;;19.30;10.13;;;12.30;99.90;;;;;;5069587;28;20090;-68
2022/03/18 09:39:25;;;;;;;27.15;10.60;;;12.30;99.90;;;;;;5069834;28;20548;-68
2022/03/18 09:41:51;;;;;;;21.40;12.07;;;12.20;99.90;;;;;;5070958;28;20044;-68
2022/03/18 09:44:17;;;;;;;24.33;11.95;;;12.20;99.90;;;;;;5070030;28;20036;-68
2022/03/18 09:46:46;;;;;;;26.80;12.25;;;12.20;99.90;;;;;;5069339;28;20040;-68
2022/03/18 09:49:17;;;;;;;26.10;11.48;;;12.20;99.90;;;;;;5052955;28;20044;-68
2022/03/18 09:51:43;;;;;;;29.02;11.82;;;12.20;99.90;;;;;;5069641;28;20571;-68
2022/03/18 09:54:10;;;;;;;25.17;10.93;;;12.30;99.90;;;;;;5069692;28;20036;-68
2022/03/18 09:56:38;;;;;;;22.35;10.07;;;12.30;99.90;;;;;;5069161;28;20490;-69
2022/03/18 09:59:04;;;;;;;25.48;12.73;;;12.20;99.90;;;;;;5070501;28;20055;-69
2022/03/18 10:01:30;;;;;;;23.27;10.07;;;12.20;99.90;;;;;;5069378;28;20040;-69
2022/03/18 10:04:02;;;;;;;21.52;10.15;;;12.40;99.90;;;;;;5073261;28;20469;-68
2022/03/18 10:06:28;;;;;;;22.33;9.85;;;12.40;99.90;;;;;;5074168;28;20048;-69
2022/03/18 10:08:55;;;;;;;24.02;12.00;;;12.40;99.90;;;;;;5072516;28;20550;-68
2022/03/18 10:11:25;;;;;;;18.95;11.23;;;12.40;99.90;;;;;;5074252;28;20043;-69
2022/03/18 10:14:06;;;;;;;22.23;9.80;;;12.30;99.90;;;;;;5072519;28;20043;-69
2022/03/18 10:16:42;;;;;;;27.15;10.77;;;12.40;99.90;;;;;;5070041;28;20037;-69
2022/03/18 10:19:17;;;;;;;23.20;10.88;;;12.40;99.90;;;;;;5072727;28;20052;-69
2022/03/18 10:21:53;;;;;;;17.80;9.25;;;12.40;99.90;;;;;;5072869;28;20529;-70
2022/03/18 10:24:22;;;;;;;23.33;9.25;;;12.50;99.90;;;;;;5072802;28;20067;-73
2022/03/18 10:26:50;;;;;;;24.48;9.75;;;12.50;99.90;;;;;;5069249;28;20402;-70
2022/03/18 10:29:15;;;;;;;21.92;10.20;;;12.40;99.90;;;;;;5070022;28;20044;-70
2022/03/18 10:31:58;;;;;;;16.35;9.68;;;12.40;99.90;;;;;;5072952;28;20509;-70
2022/03/18 10:37:21;;;;;;;19.90;10.88;;;12.40;99.90;;;;;;5071036;28;20059;-69
2022/03/18 10:39:48;;;;;;;25.77;10.18;;;12.30;99.90;;;;;;5108533;22;20058;-67
2022/03/18 10:42:20;;;;;;;16.10;9.43;;;12.30;99.90;;;;;;5094195;28;20047;-67
2022/03/18 10:44:51;;;;;;;20.38;10.70;;;12.30;99.90;;;;;;5094414;28;20107;-67
2022/03/18 10:47:34;;;;;;;19.75;10.43;;;12.30;99.90;;;;;;5093943;28;20043;-67
2022/03/18 10:50:29;;;;;;;19.40;10.68;;;12.40;99.90;;;;;;5092689;28;20044;-67
2022/03/18 10:52:58;;;;;;;24.45;11.05;;;12.40;99.90;;;;;;5093820;28;20047;-67
2022/03/18 10:55:26;;;;;;;27.42;11.05;;;12.40;99.90;;;;;;5093896;28;20043;-67
2022/03/18 10:57:56;;;;;;;18.63;11.30;;;12.50;99.90;;;;;;5093943;28;20401;-67
2022/03/18 11:00:27;;;;;;;24.83;10.90;;;12.50;99.90;;;;;;5093795;28;20481;-67
2022/03/18 11:02:58;;;;;;;16.42;10.68;;;12.60;99.90;;;;;;5093839;28;20047;-67
2022/03/18 11:05:25;;;;;;;26.08;12.60;;;12.60;99.90;;;;;;5093374;28;20044;-67
2022/03/18 11:07:52;;;;;;;24.00;12.30;;;12.70;99.90;;;;;;5089072;28;20036;-67
2022/03/18 11:13:06;;;;;;;17.65;10.15;;;12.80;99.90;;;;;;5072853;28;20272;-67
2022/03/18 11:15:34;;;;;;;19.48;8.63;;;12.70;99.90;;;;;;5080631;28;20040;-66
2022/03/18 11:18:03;;;;;;;19.02;9.30;;;12.80;99.90;;;;;;5089443;28;20051;-67
2022/03/18 11:20:32;;;;;;;20.85;9.63;;;12.80;99.90;;;;;;5083571;28;20501;-67
2022/03/18 11:22:58;;;;;;;23.25;10.32;;;12.80;99.90;;;;;;5084704;28;20404;-67
2022/03/18 11:25:27;;;;;;;17.33;9.02;;;12.80;99.90;;;;;;5093051;28;20043;-67
2022/03/18 11:27:55;;;;;;;18.90;9.90;;;12.90;99.90;;;;;;5093157;28;20469;-68
2022/03/18 11:30:31;;;;;;;20.65;9.80;;;13.00;99.90;;;;;;5092840;28;20036;-68
2022/03/18 11:33:17;;;;;;;18.27;9.85;;;12.90;99.90;;;;;;5093241;28;20036;-68
2022/03/18 11:35:48;;;;;;;18.48;8.88;;;12.90;99.90;;;;;;5093071;28;20072;-68
2022/03/18 11:38:19;;;;;;;22.50;8.57;;;13.00;99.90;;;;;;5091748;28;20067;-68
2022/03/18 11:40:51;;;;;;;14.88;7.78;;;13.00;99.80;;;;;;5093029;28;20517;-68
2022/03/18 11:43:42;;;;;;;16.70;7.25;;;13.00;98.90;;;;;;5093273;28;20035;-68
2022/03/18 11:46:13;;;;;;;16.90;8.07;;;13.00;98.30;;;;;;5092795;28;20081;-68
2022/03/18 11:48:50;;;;;;;14.77;8.75;;;13.10;97.80;;;;;;5093008;28;20040;-67
2022/03/18 11:51:37;;;;;;;15.48;9.80;;;13.20;97.50;;;;;;5092657;28;20041;-69
2022/03/18 11:54:16;;;;;;;18.90;10.27;;;13.20;97.90;;;;;;5093179;28;20044;-67
2022/03/18 11:56:51;;;;;;;18.65;10.00;;;13.10;98.20;;;;;;5092641;28;20028;-68
2022/03/18 11:59:25;;;;;;;17.45;11.25;;;13.10;98.90;;;;;;5092755;28;20044;-68
2022/03/18 12:02:14;;;;;;;16.52;9.75;;;13.10;99.10;;;;;;5092974;28;20165;-68
2022/03/18 12:04:46;;;;;;;15.95;8.68;;;13.30;98.10;;;;;;5092716;28;20501;-69
2022/03/18 12:07:30;;;;;;;18.33;10.05;;;13.40;98.20;;;;;;5092494;28;20082;-68
2022/03/18 12:10:02;;;;;;;;;;;13.40;98.30;;;;;;5091709;28;20079;-69
2022/03/18 12:12:31;;;;;;;20.15;8.80;;;13.40;97.60;;;;;;5089450;28;19923;-68
2022/03/18 12:15:04;;;;;;;21.55;10.50;;;13.50;96.80;;;;;;5081745;28;20434;-68
2022/03/18 12:17:30;;;;;;;16.55;9.40;;;13.60;96.90;;;;;;5070666;28;20040;-68
2022/03/18 12:20:02;;;;;;;20.35;10.77;;;13.70;97.50;;;;;;5071744;28;20040;-68
2022/03/18 12:22:29;;;;;;;21.70;10.68;;;13.70;96.90;;;;;;5072058;28;20048;-68
2022/03/18 12:24:56;;;;;;;18.13;10.90;;;13.80;97.80;;;;;;5071486;28;20154;-68
2022/03/18 12:27:36;;;;;;;19.75;10.40;;;13.90;97.70;;;;;;5082610;28;20076;-68
2022/03/18 12:30:04;;;;;;;19.50;8.60;;;13.80;97.10;;;;;;5082536;28;20036;-68
2022/03/18 12:32:30;;;;;;;20.02;9.02;;;13.80;96.30;;;;;;5082090;28;20040;-68
2022/03/18 12:34:57;;;;;;;16.60;9.50;;;13.60;96.90;;;;;;5070784;28;20094;-69
2022/03/18 12:37:34;;;;;;;17.48;8.45;;;13.50;97.80;;;;;;5071378;28;20046;-68
2022/03/18 12:40:08;;;;;;;19.75;8.93;;;13.50;98.90;;;;;;5071505;28;20513;-68
2022/03/18 12:42:57;;;;;;;14.93;6.93;;;13.50;98.50;;;;;;5072002;28;20119;-68
2022/03/18 12:45:29;;;;;;;18.70;6.65;;;13.50;94.60;;;;;;5070152;28;20048;-68
2022/03/18 12:47:56;;;;;;;18.13;7.97;;;13.60;95.30;;;;;;5070487;28;20045;-69
2022/03/18 12:50:33;;;;;;;17.23;8.70;;;13.80;95.00;;;;;;5071841;28;20040;-68
2022/03/18 12:53:12;;;;;;;20.40;8.73;;;13.80;95.60;;;;;;5071875;28;20097;-69
2022/03/18 12:55:38;;;;;;;17.95;6.55;;;13.80;95.60;;;;;;5071594;28;20460;-69
2022/03/18 12:58:06;;;;;;;16.77;6.68;;;13.80;93.80;;;;;;5070391;28;20119;-68
2022/03/18 13:00:43;;;;;;;13.38;5.57;;;13.70;94.00;;;;;;5070286;28;20498;-68